• Join FlightAware (Why Join?)
  • Login
  • US Flag 
07:25PM EDT


 

Airport Tracker/Info


-or-


 

Live Flight TrackerFlight Track Log ✈ UAL5915 ✈ 25-Apr-2013 ✈ KMEM - KORD

Flight Track Log - Related Links

Times and Time Zones

All times are in EDT time to prevent confusion due to time zone crossing. See the UAL5915 flight status page for this flight to view local times or setup timezone preferences in your user account.

Time Position Orientation Groundspeed Altitude Reporting Facility
EDT Latitude Longitude Course Direction KTS MPH feet Rate Location/Type
09:29AM 35.0500 -89.9667 345° North 174 200 900  Level KMEM
09:30AM 35.1000 -89.9833 345° North 186 214 2,500 2,280 Climbing KMEM
09:31AM 35.1500 -90.0000 345° North 244 281 5,100 2,700 Climbing KMEM
09:32AM 35.2167 -90.0167 348° North 242 278 7,900 2,220 Climbing KMEM
09:34AM 35.3531 -90.0211 358° North 289 333 11,000 2,040 Climbing Memphis Center
09:35AM 35.4428 -90.0258 358° North 315 362 13,300 1,800 Climbing Memphis Center
09:36AM 35.5242 -90.0306 357° North 321 369 14,700 1,560 Climbing Memphis Center
09:37AM 35.6181 -90.0378 356° North 333 383 16,500 1,680 Climbing Memphis Center
09:38AM 35.7183 -90.0450 357° North 333 383 18,100 1,320 Climbing Memphis Center
09:39AM 35.8164 -90.0550 355° North 333 383 19,200 1,260 Climbing Memphis Center
09:40AM 35.9142 -90.0647 355° North 343 395 20,700 1,440 Climbing Memphis Center
09:41AM 36.0144 -90.0747 355° North 356 410 22,100 1,260 Climbing Memphis Center
09:42AM 36.1186 -90.0847 356° North 362 417 23,300 1,020 Climbing Memphis Center
09:43AM 36.2189 -90.0944 356° North 367 422 24,200 900 Climbing Memphis Center
09:44AM 36.3250 -90.1044 356° North 372 428 25,200 1,260 Climbing Memphis Center
09:45AM 36.4272 -90.1144 355° North 372 428 26,800 1,500 Climbing Memphis Center
09:46AM 36.5275 -90.1244 355° North 367 422 28,300 1,200 Climbing Memphis Center
09:47AM 36.6086 -90.1319 356° North 362 417 29,300 1,020 Climbing Memphis Center
09:48AM 36.7150 -90.1422 356° North 362 417 30,400 1,200 Climbing Memphis Center
09:49AM 36.8150 -90.1547 354° North 356 410 31,800 1,380 Climbing Memphis Center
09:50AM 36.9108 -90.1622 356° North 351 404 33,200 720 Climbing Memphis Center
09:52AM 37.1047 -90.1767 357° North 357 411 34,000 240 Climbing Kansas City Center
09:53AM 37.2128 -90.1878 355° North 381 438 34,000  Level Kansas City Center
09:54AM 37.3244 -90.1981 356° North 396 456 34,000  Level Kansas City Center
09:55AM 37.4278 -90.2081 356° North 399 459 34,000 900 Level Kansas City Center
09:56AM 37.5550 -90.2192 356° North 387 445 35,900 960 Climbing Kansas City Center
09:57AM 37.6561 -90.2311 355° North 369 425 36,000  Climbing Kansas City Center
09:58AM 37.7442 -90.2836 335° Northwest 355 409 36,000  Level Kansas City Center
09:59AM 37.8278 -90.3422 331° Northwest 346 398 36,000  Level Kansas City Center
10:00AM 37.9111 -90.4025 330° Northwest 346 398 36,000  Level Kansas City Center
10:01AM 37.9956 -90.4639 330° Northwest 349 402 36,000  Level Kansas City Center
10:02AM 38.0975 -90.5361 331° Northwest 348 400 36,000  Level Kansas City Center
10:03AM 38.1825 -90.5969 331° Northwest 350 403 36,000  Level Kansas City Center
10:04AM 38.2672 -90.6594 330° Northwest 351 404 36,000  Level Kansas City Center
10:05AM 38.3567 -90.7125 335° Northwest 354 407 36,000  Level Kansas City Center
10:06AM 38.4611 -90.6942 North 392 451 36,000  Level Kansas City Center
10:07AM 38.5947 -90.6489 15° North 409 471 36,000  Level Kansas City Center
10:08AM 38.7078 -90.6133 14° North 414 476 36,000  Level Kansas City Center
10:09AM 38.8219 -90.5786 13° North 419 482 36,000  Level Kansas City Center
10:10AM 38.9339 -90.5394 15° North 417 480 36,000  Level Kansas City Center
10:11AM 39.0531 -90.4878 19° North 415 478 36,000 -240 Level Kansas City Center
10:12AM 39.1639 -90.4419 18° North 416 479 35,600 -540 Descending Kansas City Center
10:13AM 39.2747 -90.3953 18° North 418 481 35,000 -720 Descending Kansas City Center
10:14AM 39.3842 -90.3494 18° North 416 479 34,100 -960 Descending Kansas City Center
10:15AM 39.4928 -90.3039 18° North 412 474 33,100 -540 Descending Kansas City Center
10:16AM 39.6028 -90.2581 18° North 413 475 33,000 -60 Descending Kansas City Center
10:17AM 39.7144 -90.2114 18° North 419 482 33,000  Level Kansas City Center
10:18AM 39.8272 -90.1633 18° North 421 484 33,000  Level Kansas City Center
10:19AM 39.8947 -90.1361 17° North 424 488 33,000  Level Chicago Center
10:20AM 40.0067 -90.0894 18° North 424 488 33,000  Level Chicago Center
10:21AM 40.1194 -90.0400 19° North 426 490 33,000 -120 Level Chicago Center
10:22AM 40.2317 -89.9925 18° North 425 489 32,800 -720 Descending Chicago Center
10:23AM 40.3681 -89.9336 18° North 429 494 31,600 -1,020 Descending Chicago Center
10:24AM 40.4731 -89.8883 18° North 434 499 30,800 -900 Descending Chicago Center
10:25AM 40.5906 -89.8369 18° North 442 509 29,800 -1,080 Descending Chicago Center
10:26AM 40.7308 -89.7747 19° North 443 510 28,600 -1,080 Descending Chicago Center
10:27AM 40.8469 -89.7250 18° North 443 510 27,600 -1,200 Descending Chicago Center
10:28AM 40.9589 -89.6747 19° North 434 499 26,200 -1,440 Descending Chicago Center
10:29AM 41.0658 -89.6094 25° Northeast 429 494 24,700 -1,260 Descending Chicago Center
10:30AM 41.1394 -89.4750 54° Northeast 446 513 23,600 -1,740 Descending Chicago Center
10:31AM 41.2081 -89.3358 57° Northeast 449 517 21,200 -2,580 Descending Chicago Center
10:32AM 41.2822 -89.1803 58° Northeast 425 489 18,300 -2,520 Descending Chicago Center
10:33AM 41.3442 -89.0539 57° Northeast 410 472 16,100 -2,220 Descending Chicago Center
10:34AM 41.4033 -88.9333 57° Northeast 393 452 13,700 -2,160 Descending Chicago Center
10:35AM 41.4603 -88.8164 57° Northeast 379 436 11,700 -1,320 Descending Chicago Center
10:36AM 41.5158 -88.6992 58° Northeast 373 429 11,000 -360 Descending Chicago Center
10:38AM 41.5733 -88.5525 62° Northeast 371 427 11,000  Level Chicago Center
10:39AM 41.6267 -88.4328 59° Northeast 374 430 11,000  Level Chicago Center
10:40AM 41.6911 -88.3231 52° Northeast 373 429 11,000  Level Chicago Center
10:41AM 41.7561 -88.2136 51° Northeast 374 430 11,000  Level Chicago Center
10:42AM 41.8206 -88.1033 52° Northeast 373 429 11,000 -420 Level Chicago Center
10:43AM 41.8744 -88.0031 54° Northeast 333 383 10,200 -1,260 Descending Chicago Center
10:43AM 41.8833 -87.9000 83° East 303 349 8,700 -1,860 Descending Chicago TRACON
10:44AM 41.8833 -87.8000 90° East 271 312 6,900 -1,740 Descending Chicago TRACON
10:45AM 41.8833 -87.7000 90° East 265 305 5,300 -960 Descending Chicago TRACON
10:46AM 41.8833 -87.6000 90° East 271 312 5,000 -180 Descending Chicago TRACON
10:47AM 41.8833 -87.5000 90° East 244 281 5,000  Level Chicago TRACON
10:48AM 41.9333 -87.4833 14° North 197 227 5,000  Level Chicago TRACON
10:49AM 41.9667 -87.5333 312° West 175 201 5,000 -60 Level Chicago TRACON
10:50AM 41.9667 -87.6000 270° West 168 193 4,900 -480 Descending Chicago TRACON
10:51AM 41.9667 -87.6667 270° West 167 192 4,100 -900 Descending Chicago TRACON
10:52AM 41.9667 -87.7167 270° West 173 199 3,100 -960 Descending Chicago TRACON
10:54AM 41.9667 -87.7833 270° West 163 188 2,100 -840 Descending Chicago TRACON
10:54AM 41.9667 -87.8333 270° West 125 144 1,500 -660 Descending Chicago TRACON
10:57AM 41.9667 -87.9000 286° West  Level FlightAware Approximate